createdAt,value
2023-04-20T00:01:32.450Z,62.90
2023-04-20T00:06:37.609Z,63.00
2023-04-20T00:11:41.591Z,63.10
2023-04-20T00:16:45.518Z,63.10
2023-04-20T00:21:50.666Z,62.90
2023-04-20T00:26:55.019Z,63.20
2023-04-20T00:31:58.500Z,63.20
2023-04-20T00:37:03.515Z,63.90
2023-04-20T00:42:08.472Z,63.40
2023-04-20T00:47:11.953Z,63.40
2023-04-20T00:52:17.103Z,63.20
2023-04-20T00:57:23.862Z,63.30
2023-04-20T01:02:27.732Z,63.40
2023-04-20T01:07:32.782Z,63.30
2023-04-20T01:12:36.591Z,63.40
2023-04-20T01:17:40.388Z,63.40
2023-04-20T01:22:49.526Z,63.40
2023-04-20T01:27:53.046Z,63.50
2023-04-20T01:32:56.618Z,63.50
2023-04-20T01:38:01.502Z,63.60
2023-04-20T01:43:04.993Z,63.60
2023-04-20T01:48:08.686Z,63.60
2023-04-20T01:53:13.910Z,63.60
2023-04-20T01:58:17.560Z,63.60
2023-04-20T02:03:21.274Z,63.60
2023-04-20T02:08:26.271Z,63.60
2023-04-20T02:13:29.836Z,63.60
2023-04-20T02:18:33.691Z,63.60
2023-04-20T02:23:38.768Z,63.60
2023-04-20T02:28:42.356Z,63.70
2023-04-20T02:33:47.691Z,63.60
2023-04-20T02:38:52.538Z,63.10
2023-04-20T02:43:56.002Z,63.80
2023-04-20T02:48:59.572Z,63.90
2023-04-20T02:54:05.925Z,63.90
2023-04-20T02:59:09.493Z,63.90
2023-04-20T03:04:19.326Z,63.90
2023-04-20T03:09:32.138Z,64.00
2023-04-20T03:14:56.395Z,63.90
2023-04-20T03:20:12.135Z,64.00
2023-04-20T03:25:17.340Z,64.10
2023-04-20T03:30:44.028Z,64.10
2023-04-20T03:35:51.898Z,64.10
2023-04-20T03:40:56.798Z,64.10
2023-04-20T03:46:00.456Z,64.10
2023-04-20T03:51:04.324Z,64.20
2023-04-20T03:56:09.932Z,64.20
2023-04-20T04:01:14.046Z,64.30
2023-04-20T04:06:21.825Z,64.30
2023-04-20T04:11:29.941Z,64.40
2023-04-20T04:16:34.392Z,64.30
2023-04-20T04:21:38.024Z,64.40
2023-04-20T04:26:43.723Z,64.40
2023-04-20T04:31:49.565Z,64.50
2023-04-20T04:36:54.414Z,65.30
2023-04-20T04:42:07.598Z,64.50
2023-04-20T04:47:17.700Z,64.60
2023-04-20T04:52:22.032Z,64.60
2023-04-20T04:57:27.342Z,64.50
2023-04-20T05:02:31.056Z,64.60
2023-04-20T05:07:34.791Z,64.70
2023-04-20T05:12:40.414Z,64.70
2023-04-20T05:17:44.212Z,64.80
2023-04-20T05:22:47.876Z,64.70
2023-04-20T05:27:53.426Z,64.80
2023-04-20T05:32:56.984Z,64.90
2023-04-20T05:38:02.579Z,64.90
2023-04-20T05:43:07.417Z,64.80
2023-04-20T05:48:11.048Z,64.90
2023-04-20T05:53:14.560Z,64.90
2023-04-20T05:58:19.629Z,64.90
2023-04-20T06:03:23.273Z,64.90
2023-04-20T06:08:26.951Z,64.90
2023-04-20T06:13:31.825Z,64.90
2023-04-20T06:18:35.434Z,65.10
2023-04-20T06:23:39.319Z,65.00
2023-04-20T06:28:45.473Z,65.00
2023-04-20T06:33:48.971Z,65.10
2023-04-20T06:38:52.708Z,65.10
2023-04-20T06:43:57.536Z,65.10
2023-04-20T06:49:00.967Z,65.00
2023-04-20T06:54:04.433Z,65.10
2023-04-20T06:59:09.303Z,65.00
2023-04-20T07:04:13.251Z,65.00
2023-04-20T07:09:17.227Z,64.90
2023-04-20T07:14:22.229Z,64.90
2023-04-20T07:19:25.756Z,64.90
2023-04-20T07:24:29.797Z,64.80
2023-04-20T07:29:34.616Z,64.70
2023-04-20T07:34:38.215Z,64.60
2023-04-20T07:39:41.745Z,64.70
2023-04-20T07:44:46.612Z,64.60
2023-04-20T07:49:50.117Z,64.60
2023-04-20T07:54:54.498Z,64.60
2023-04-20T07:59:59.393Z,64.60
2023-04-20T08:05:04.093Z,64.60
2023-04-20T08:10:10.510Z,64.60
2023-04-20T08:15:15.640Z,64.50
2023-04-20T08:20:19.397Z,65.40
2023-04-20T08:25:24.286Z,64.70
2023-04-20T08:30:30.324Z,64.50
2023-04-20T08:35:33.784Z,64.60
2023-04-20T08:40:38.661Z,64.70
2023-04-20T08:45:51.120Z,64.60
2023-04-20T08:50:55.262Z,64.70
2023-04-20T08:55:58.933Z,64.70
2023-04-20T09:01:03.832Z,64.80
2023-04-20T09:06:17.810Z,64.80
2023-04-20T09:11:26.004Z,64.80
2023-04-20T09:16:31.615Z,64.80
2023-04-20T09:21:35.867Z,64.80
2023-04-20T09:26:39.323Z,65.10
2023-04-20T09:31:44.395Z,64.80
2023-04-20T09:36:51.237Z,64.80
2023-04-20T09:41:54.841Z,64.80
2023-04-20T09:47:00.860Z,64.90
2023-04-20T09:52:06.286Z,64.90
2023-04-20T09:57:11.375Z,64.90
2023-04-20T10:02:16.432Z,64.90
2023-04-20T10:07:27.231Z,65.00
2023-04-20T10:12:30.799Z,65.00
2023-04-20T10:17:36.077Z,65.00
2023-04-20T10:22:39.857Z,64.90
2023-04-20T10:27:56.469Z,65.00
2023-04-20T10:33:11.216Z,64.90
2023-04-20T10:38:14.972Z,64.90
2023-04-20T10:43:22.493Z,64.90
2023-04-20T10:48:27.388Z,64.90
2023-04-20T10:53:34.472Z,64.90
2023-04-20T10:58:38.397Z,65.00
2023-04-20T11:03:43.328Z,65.00
2023-04-20T11:08:47.004Z,65.10
2023-04-20T11:13:50.533Z,65.10
2023-04-20T11:18:58.158Z,65.00
2023-04-20T11:24:01.706Z,65.00
2023-04-20T11:29:05.596Z,65.00
2023-04-20T11:34:19.159Z,64.90
2023-04-20T11:39:26.361Z,64.80
2023-04-20T11:44:29.861Z,64.90
2023-04-20T11:49:34.651Z,64.70
2023-04-20T11:54:38.129Z,64.80
2023-04-20T11:59:42.954Z,64.70
2023-04-20T12:04:48.063Z,64.70
2023-04-20T12:09:51.669Z,64.60
2023-04-20T12:14:55.328Z,64.50
2023-04-20T12:20:00.622Z,64.60
2023-04-20T12:25:04.313Z,64.60
2023-04-20T12:30:10.326Z,64.50
2023-04-20T12:35:15.212Z,64.30
2023-04-20T12:40:20.542Z,64.40
2023-04-20T12:45:24.398Z,64.30
2023-04-20T12:50:29.295Z,64.10
2023-04-20T12:55:32.910Z,64.10
2023-04-20T13:00:44.271Z,64.00
2023-04-20T13:05:49.269Z,63.90
2023-04-20T13:10:52.886Z,63.60
2023-04-20T13:15:58.222Z,63.50
2023-04-20T13:21:03.176Z,63.50
2023-04-20T13:26:08.372Z,63.50
2023-04-20T13:31:11.857Z,63.60
2023-04-20T13:36:16.730Z,63.50
2023-04-20T13:41:23.600Z,63.30
2023-04-20T13:46:27.146Z,63.20
2023-04-20T13:51:32.591Z,63.30
2023-04-20T13:56:36.397Z,63.20
2023-04-20T14:01:40.126Z,63.10
2023-04-20T14:06:45.054Z,63.00
2023-04-20T14:11:51.949Z,62.90
2023-04-20T14:16:57.731Z,62.90
2023-04-20T14:22:02.880Z,62.70
2023-04-20T14:27:06.349Z,62.60
2023-04-20T14:32:09.837Z,62.50
2023-04-20T14:37:14.764Z,62.60
2023-04-20T14:42:18.255Z,62.50
2023-04-20T14:47:21.736Z,62.70
2023-04-20T14:52:26.850Z,62.70
2023-04-20T14:57:31.254Z,62.70
2023-04-20T15:02:34.854Z,62.70
2023-04-20T15:07:39.948Z,62.80
2023-04-20T15:12:43.382Z,62.90
2023-04-20T15:17:47.588Z,62.90
2023-04-20T15:22:52.446Z,62.80
2023-04-20T15:27:56.034Z,62.90
2023-04-20T15:33:05.106Z,62.90
2023-04-20T15:38:10.602Z,63.00
2023-04-20T15:43:14.200Z,63.00
2023-04-20T15:48:17.658Z,63.00
2023-04-20T15:53:24.191Z,63.10
2023-04-20T15:58:28.870Z,63.10
2023-04-20T16:03:32.465Z,62.80
2023-04-20T16:08:37.827Z,62.80
2023-04-20T16:13:41.456Z,63.00
2023-04-20T16:18:44.908Z,63.00
2023-04-20T16:23:54.171Z,62.80
2023-04-20T16:28:57.856Z,63.00
2023-04-20T16:34:01.388Z,63.10
2023-04-20T16:39:06.689Z,63.10
2023-04-20T16:44:13.310Z,63.00
2023-04-20T16:49:16.814Z,63.00
2023-04-20T16:54:21.755Z,62.90
2023-04-20T16:59:25.305Z,63.10
2023-04-20T17:04:29.625Z,63.30
2023-04-20T17:09:34.675Z,63.50
2023-04-20T17:14:38.284Z,63.10
2023-04-20T17:19:41.894Z,63.00
2023-04-20T17:24:47.392Z,62.90
2023-04-20T17:29:51.670Z,62.90
2023-04-20T17:34:55.472Z,62.80
2023-04-20T17:40:00.597Z,62.70
2023-04-20T17:45:04.178Z,62.80
2023-04-20T17:50:11.744Z,62.70
2023-04-20T17:55:16.719Z,62.70
2023-04-20T18:00:21.029Z,62.90
2023-04-20T18:05:24.963Z,63.60
2023-04-20T18:10:29.930Z,62.90
2023-04-20T18:15:33.612Z,63.10
2023-04-20T18:20:37.141Z,63.30
2023-04-20T18:25:42.632Z,63.40
2023-04-20T18:30:46.192Z,63.60
2023-04-20T18:35:49.708Z,63.50
2023-04-20T18:40:54.561Z,63.60
2023-04-20T18:45:58.158Z,63.80
2023-04-20T18:51:01.819Z,63.80
2023-04-20T18:56:08.019Z,63.90
2023-04-20T19:01:12.752Z,63.80
2023-04-20T19:06:16.410Z,63.90
2023-04-20T19:11:21.302Z,63.80
2023-04-20T19:16:24.889Z,64.90
2023-04-20T19:21:28.742Z,64.90
2023-04-20T19:26:33.768Z,64.20
2023-04-20T19:31:40.031Z,64.20
2023-04-20T19:36:43.822Z,64.20
2023-04-20T19:41:48.888Z,64.30
2023-04-20T19:46:52.449Z,64.30
2023-04-20T19:51:56.075Z,64.30
2023-04-20T19:57:01.320Z,64.40
2023-04-20T20:02:05.166Z,64.40
2023-04-20T20:07:08.762Z,64.40
2023-04-20T20:12:13.643Z,64.50
2023-04-20T20:17:19.214Z,64.50
2023-04-20T20:22:22.675Z,64.50
2023-04-20T20:27:27.967Z,64.50
2023-04-20T20:32:31.559Z,64.60
2023-04-20T20:37:35.993Z,64.70
2023-04-20T20:42:42.401Z,64.60
2023-04-20T20:47:46.890Z,64.60
2023-04-20T20:52:50.783Z,64.70
2023-04-20T20:57:55.597Z,64.70
2023-04-20T21:02:59.247Z,64.70
2023-04-20T21:08:02.869Z,64.80
2023-04-20T21:13:07.674Z,64.80
2023-04-20T21:18:11.292Z,64.80
2023-04-20T21:23:14.759Z,64.80
2023-04-20T21:28:19.577Z,64.80
2023-04-20T21:33:23.094Z,64.90
2023-04-20T21:38:26.602Z,65.00
2023-04-20T21:43:31.411Z,65.00
2023-04-20T21:48:34.880Z,65.00
2023-04-20T21:53:38.369Z,65.10
2023-04-20T21:58:43.349Z,65.10
2023-04-20T22:03:47.463Z,65.00
2023-04-20T22:08:51.297Z,65.10
2023-04-20T22:13:57.238Z,65.10
2023-04-20T22:19:01.533Z,65.20
2023-04-20T22:24:05.800Z,65.30
2023-04-20T22:29:10.843Z,65.20
2023-04-20T22:34:14.347Z,65.20
2023-04-20T22:39:18.096Z,65.70
2023-04-20T22:44:23.138Z,65.30
2023-04-20T22:49:26.869Z,65.30
2023-04-20T22:54:31.216Z,65.30
2023-04-20T22:59:36.409Z,65.30
2023-04-20T23:04:40.182Z,65.40
2023-04-20T23:09:43.998Z,65.40
2023-04-20T23:14:48.823Z,65.50
2023-04-20T23:19:52.635Z,65.50
2023-04-20T23:24:57.351Z,65.50
2023-04-20T23:30:02.220Z,65.50
2023-04-20T23:35:08.477Z,65.60
2023-04-20T23:40:13.159Z,65.60
2023-04-20T23:45:17.981Z,65.70
2023-04-20T23:50:21.799Z,65.60
2023-04-20T23:55:25.366Z,65.70
